createdAt,value
2023-11-23T00:02:08.189Z,99644.69
2023-11-23T00:04:38.137Z,99634.16
2023-11-23T00:07:06.855Z,99626.38
2023-11-23T00:09:35.463Z,99610.50
2023-11-23T00:12:04.192Z,99591.94
2023-11-23T00:14:33.688Z,99581.31
2023-11-23T00:17:02.383Z,99564.63
2023-11-23T00:19:31.097Z,99552.16
2023-11-23T00:22:01.470Z,99533.75
2023-11-23T00:24:30.152Z,99524.94
2023-11-23T00:26:59.613Z,99509.84
2023-11-23T00:29:28.478Z,99496.00
2023-11-23T00:31:58.686Z,99490.81
2023-11-23T00:34:27.426Z,99473.16
2023-11-23T00:36:57.358Z,99468.91
2023-11-23T00:39:27.879Z,99459.06
2023-11-23T00:41:56.527Z,99446.69
2023-11-23T00:44:25.063Z,99441.25
2023-11-23T00:46:54.062Z,99436.94
2023-11-23T00:49:23.154Z,99407.66
2023-11-23T00:51:51.861Z,99426.84
2023-11-23T00:54:21.556Z,99414.47
2023-11-23T00:56:51.570Z,99388.06
2023-11-23T00:59:20.147Z,99389.75
2023-11-23T01:01:48.896Z,99386.09
2023-11-23T01:04:18.207Z,99375.41
2023-11-23T01:06:46.840Z,99362.25
2023-11-23T01:09:15.331Z,99346.31
2023-11-23T01:11:44.018Z,99335.59
2023-11-23T01:14:14.030Z,99316.81
2023-11-23T01:16:42.722Z,99306.97
2023-11-23T01:19:11.872Z,99305.09
2023-11-23T01:21:40.604Z,99286.38
2023-11-23T01:24:11.203Z,99277.47
2023-11-23T01:26:40.016Z,99262.34
2023-11-23T01:29:08.811Z,99243.53
2023-11-23T01:31:39.410Z,99209.72
2023-11-23T01:34:08.070Z,99213.50
2023-11-23T01:36:36.993Z,99180.56
2023-11-23T01:39:06.470Z,99166.94
2023-11-23T01:41:35.016Z,99149.41
2023-11-23T01:44:03.600Z,99130.69
2023-11-23T01:46:32.160Z,99113.44
2023-11-23T01:49:06.530Z,99112.97
2023-11-23T01:51:35.713Z,99085.16
2023-11-23T01:54:04.327Z,99074.59
2023-11-23T01:56:33.507Z,99069.53
2023-11-23T01:59:03.035Z,99054.34
2023-11-23T02:01:31.689Z,99022.84
2023-11-23T02:04:01.728Z,99034.75
2023-11-23T02:06:30.479Z,99024.00
2023-11-23T02:08:59.042Z,99018.44
2023-11-23T02:11:28.036Z,99004.00
2023-11-23T02:13:57.324Z,98984.28
2023-11-23T02:16:25.940Z,98988.81
2023-11-23T02:18:54.751Z,98973.84
2023-11-23T02:21:25.680Z,98959.28
2023-11-23T02:23:54.463Z,98955.91
2023-11-23T02:26:24.589Z,98952.34
2023-11-23T02:28:53.476Z,98953.06
2023-11-23T02:31:22.051Z,98937.97
2023-11-23T02:33:51.733Z,98931.97
2023-11-23T02:36:20.370Z,98923.84
2023-11-23T02:38:49.118Z,98909.72
2023-11-23T02:41:17.657Z,98895.59
2023-11-23T02:43:47.721Z,98894.53
2023-11-23T02:46:16.298Z,98883.84
2023-11-23T03:01:34.474Z,98844.91
2023-11-23T03:04:05.905Z,98815.75
2023-11-23T03:06:34.646Z,98808.25
2023-11-23T03:09:02.912Z,98809.97
2023-11-23T03:11:31.520Z,98796.53
2023-11-23T03:14:00.052Z,98792.94
2023-11-23T03:16:28.602Z,98785.53
2023-11-23T03:18:59.925Z,98778.34
2023-11-23T03:21:28.693Z,98786.03
2023-11-23T03:23:57.601Z,98771.66
2023-11-23T03:26:27.162Z,98768.56
2023-11-23T03:28:55.723Z,98736.78
2023-11-23T03:31:25.701Z,98731.41
2023-11-23T03:33:54.200Z,98739.09
2023-11-23T03:36:24.278Z,98728.28
2023-11-23T03:38:52.775Z,98717.50
2023-11-23T03:41:21.275Z,98706.94
2023-11-23T03:43:49.778Z,98682.22
2023-11-23T03:46:18.404Z,98684.72
2023-11-23T03:48:47.030Z,98661.69
2023-11-23T03:51:15.814Z,98663.25
2023-11-23T03:53:46.137Z,98653.56
2023-11-23T03:56:16.514Z,98646.13
2023-11-23T03:58:45.270Z,98647.22
2023-11-23T04:01:14.670Z,98642.03
2023-11-23T04:03:46.211Z,98627.66
2023-11-23T04:06:15.212Z,98627.75
2023-11-23T04:08:45.441Z,98596.78
2023-11-23T04:11:14.366Z,98589.81
2023-11-23T04:13:43.071Z,98581.06
2023-11-23T04:16:12.082Z,98573.97
2023-11-23T04:18:43.493Z,98559.81
2023-11-23T04:21:12.473Z,98551.91
2023-11-23T04:34:16.654Z,98491.38
2023-11-23T04:36:45.569Z,98488.03
2023-11-23T04:39:14.460Z,98492.34
2023-11-23T04:41:43.732Z,98493.19
2023-11-23T04:44:12.521Z,98470.97
2023-11-23T04:46:44.627Z,98458.59
2023-11-23T04:49:13.444Z,98461.00
2023-11-23T04:51:43.825Z,98448.66
2023-11-23T04:54:14.508Z,98440.00
2023-11-23T04:56:45.271Z,98443.38
2023-11-23T04:59:14.121Z,98437.84
2023-11-23T05:01:42.848Z,98440.47
2023-11-23T05:04:12.210Z,98428.94
2023-11-23T05:06:41.262Z,98432.56
2023-11-23T05:09:14.368Z,98420.06
2023-11-23T05:11:44.235Z,98418.97
2023-11-23T05:14:13.176Z,98411.16
2023-11-23T05:16:42.108Z,98404.78
2023-11-23T05:19:10.829Z,98401.19
2023-11-23T05:21:39.786Z,98394.13
2023-11-23T05:24:09.719Z,98397.69
2023-11-23T05:26:40.278Z,98388.00
2023-11-23T05:29:08.917Z,98398.31
2023-11-23T05:31:37.668Z,98374.53
2023-11-23T05:34:06.583Z,98377.16
2023-11-23T05:36:35.478Z,98368.16
2023-11-23T05:39:04.557Z,98357.44
2023-11-23T05:41:33.394Z,98338.94
2023-11-23T05:44:03.594Z,98336.19
2023-11-23T05:46:33.125Z,98335.94
2023-11-23T05:49:02.029Z,98337.84
2023-11-23T05:51:30.780Z,98331.72
2023-11-23T05:53:59.715Z,98330.91
2023-11-23T05:56:29.348Z,98317.59
2023-11-23T05:58:58.349Z,98318.41
2023-11-23T06:01:28.627Z,98306.16
2023-11-23T06:03:57.726Z,98308.69
2023-11-23T06:06:32.450Z,98295.34
2023-11-23T06:09:01.177Z,98285.59
2023-11-23T06:11:30.040Z,98271.56
2023-11-23T06:13:58.855Z,98263.63
2023-11-23T06:16:29.848Z,98266.13
2023-11-23T06:18:59.318Z,98260.84
2023-11-23T06:21:30.401Z,98264.47
2023-11-23T06:23:59.661Z,98253.91
2023-11-23T06:26:28.900Z,98250.53
2023-11-23T06:28:57.607Z,98250.53
2023-11-23T06:31:26.881Z,98245.38
2023-11-23T06:33:57.242Z,98229.69
2023-11-23T06:36:26.108Z,98220.91
2023-11-23T06:38:58.217Z,98222.69
2023-11-23T06:41:27.134Z,98218.28
2023-11-23T06:43:55.913Z,98207.72
2023-11-23T06:46:24.602Z,98206.72
2023-11-23T06:48:53.488Z,98193.53
2023-11-23T06:51:23.818Z,98197.16
2023-11-23T06:53:52.505Z,98153.44
2023-11-23T06:56:22.938Z,98166.84
2023-11-23T06:58:52.782Z,98156.97
2023-11-23T07:01:22.944Z,98142.66
2023-11-23T07:03:51.898Z,98142.53
2023-11-23T07:06:25.447Z,98124.88
2023-11-23T07:08:55.965Z,98133.50
2023-11-23T07:11:24.642Z,98116.84
2023-11-23T07:13:55.003Z,98128.78
2023-11-23T07:16:24.022Z,98113.09
2023-11-23T07:18:53.180Z,98109.47
2023-11-23T07:21:22.408Z,98108.63
2023-11-23T07:23:51.278Z,98100.44
2023-11-23T07:26:22.097Z,98098.50
2023-11-23T07:28:50.949Z,98091.53
2023-11-23T07:31:19.788Z,98080.69
2023-11-23T07:33:51.286Z,98075.41
2023-11-23T07:36:25.401Z,98054.13
2023-11-23T07:38:56.853Z,98057.47
2023-11-23T07:41:27.285Z,98050.38
2023-11-23T07:43:59.257Z,98045.94
2023-11-23T07:46:28.133Z,98045.78
2023-11-23T07:48:57.103Z,98027.16
2023-11-23T07:51:26.121Z,98028.69
2023-11-23T07:53:54.941Z,98031.88
2023-11-23T07:56:24.034Z,98006.31
2023-11-23T07:58:54.267Z,97999.34
2023-11-23T08:01:23.026Z,97990.16
2023-11-23T08:03:51.840Z,97987.53
2023-11-23T08:06:21.243Z,97989.19
2023-11-23T08:08:49.830Z,97983.91
2023-11-23T08:11:19.331Z,97985.84
2023-11-23T08:13:48.216Z,97979.88
2023-11-23T08:16:20.338Z,97970.97
2023-11-23T08:18:50.370Z,97980.56
2023-11-23T08:21:19.606Z,97982.25
2023-11-23T08:23:48.998Z,97967.91
2023-11-23T08:26:19.114Z,97962.75
2023-11-23T08:28:47.975Z,97955.66
2023-11-23T08:31:18.208Z,97957.47
2023-11-23T08:33:47.198Z,97961.78
2023-11-23T08:36:17.383Z,97943.28
2023-11-23T08:38:46.137Z,97944.94
2023-11-23T08:41:15.076Z,97934.38
2023-11-23T08:43:44.000Z,97925.31
2023-11-23T08:46:12.864Z,97923.25
2023-11-23T08:48:43.875Z,97909.03
2023-11-23T08:51:13.343Z,97900.13
2023-11-23T08:53:42.161Z,97895.69
2023-11-23T08:56:14.396Z,97888.44
2023-11-23T08:58:43.530Z,97895.41
2023-11-23T09:01:13.286Z,97888.16
2023-11-23T09:03:43.955Z,97879.38
2023-11-23T09:06:13.023Z,97884.53
2023-11-23T09:08:42.200Z,97874.94
2023-11-23T09:11:11.550Z,97868.53
2023-11-23T09:13:40.431Z,97864.91
2023-11-23T09:16:09.549Z,97849.75
2023-11-23T09:18:38.746Z,97837.22
2023-11-23T09:21:09.330Z,97826.34
2023-11-23T09:23:38.193Z,97815.75
2023-11-23T09:26:08.547Z,97810.47
2023-11-23T09:28:37.281Z,97806.19
2023-11-23T09:31:05.879Z,97798.09
2023-11-23T09:33:34.626Z,97786.69
2023-11-23T09:36:04.212Z,97772.63
2023-11-23T09:38:36.616Z,97773.59
2023-11-23T09:41:10.233Z,97765.66
2023-11-23T09:43:38.977Z,97763.56
2023-11-23T09:46:08.908Z,97762.56
2023-11-23T09:48:42.094Z,97764.91
2023-11-23T09:51:12.823Z,97758.50
2023-11-23T09:53:46.049Z,97758.38
2023-11-23T09:56:17.797Z,97751.13
2023-11-23T09:58:47.509Z,97750.84
2023-11-23T10:01:16.377Z,97743.59
2023-11-23T10:03:51.467Z,97745.25
2023-11-23T10:06:20.185Z,97742.31
2023-11-23T10:08:51.259Z,97739.69
2023-11-23T10:11:21.646Z,97738.56
2023-11-23T10:13:50.263Z,97728.66
2023-11-23T10:16:19.070Z,97721.69
2023-11-23T10:18:47.844Z,97715.25
2023-11-23T10:21:16.797Z,97709.97
2023-11-23T10:23:46.059Z,97700.06
2023-11-23T10:26:16.292Z,97700.59
2023-11-23T10:28:45.787Z,97693.03
2023-11-23T10:31:14.608Z,97678.72
2023-11-23T10:33:44.104Z,97675.44
2023-11-23T10:36:13.294Z,97678.47
2023-11-23T10:38:44.679Z,97673.03
2023-11-23T10:41:16.327Z,97671.09
2023-11-23T10:43:47.242Z,97663.28
2023-11-23T10:46:18.137Z,97655.34
2023-11-23T10:48:48.318Z,97649.75
2023-11-23T10:51:17.991Z,97642.47
2023-11-23T10:53:46.747Z,97646.31
2023-11-23T10:56:22.107Z,97647.69
2023-11-23T10:58:55.709Z,97644.06
2023-11-23T11:01:27.262Z,97642.53
2023-11-23T11:03:57.266Z,97633.31
2023-11-23T11:06:26.110Z,97630.69
2023-11-23T11:08:55.033Z,97621.91
2023-11-23T11:11:27.613Z,97621.72
2023-11-23T11:14:03.727Z,97621.44
2023-11-23T11:16:36.180Z,97616.97
2023-11-23T11:19:08.368Z,97614.16
2023-11-23T11:21:44.296Z,97610.09
2023-11-23T11:24:21.362Z,97607.44
2023-11-23T11:26:51.975Z,97604.63
2023-11-23T11:29:22.581Z,97603.84
2023-11-23T11:31:51.412Z,97594.47
2023-11-23T11:34:21.963Z,97596.94
2023-11-23T11:37:00.117Z,97592.66
2023-11-23T11:39:33.382Z,97585.19
2023-11-23T11:42:04.133Z,97576.78
2023-11-23T11:44:34.985Z,97579.78
2023-11-23T11:47:04.597Z,97573.69
2023-11-23T11:49:33.349Z,97571.03
2023-11-23T11:52:08.374Z,97569.88
2023-11-23T11:54:39.640Z,97563.63
2023-11-23T11:57:10.142Z,97558.09
2023-11-23T11:59:39.414Z,97551.44
2023-11-23T12:02:08.144Z,97543.97
2023-11-23T12:04:37.944Z,97536.19
2023-11-23T12:07:14.605Z,97520.78
2023-11-23T12:09:46.899Z,97510.00
2023-11-23T12:12:19.404Z,97507.53
2023-11-23T12:14:49.291Z,97513.66
2023-11-23T12:17:18.118Z,97510.00
2023-11-23T12:19:53.935Z,97517.31
2023-11-23T12:22:24.437Z,97522.41
2023-11-23T12:24:53.998Z,97522.59
2023-11-23T12:27:26.647Z,97510.00
2023-11-23T12:29:55.587Z,97496.75
2023-11-23T12:32:24.330Z,97488.81
2023-11-23T12:34:53.045Z,97500.41
2023-11-23T12:37:21.697Z,97488.81
2023-11-23T12:39:51.205Z,97494.13
2023-11-23T12:42:20.204Z,97486.16
2023-11-23T12:44:51.954Z,97479.91
2023-11-23T12:47:22.600Z,97473.59
2023-11-23T12:49:52.857Z,97484.88
2023-11-23T12:52:21.551Z,97484.41
2023-11-23T12:54:50.120Z,97493.34
2023-11-23T12:57:19.306Z,97491.53
2023-11-23T12:59:49.345Z,97487.38
2023-11-23T13:02:19.115Z,97486.56
2023-11-23T13:04:47.873Z,97490.16
2023-11-23T13:07:17.083Z,97476.44
2023-11-23T13:09:45.723Z,97464.00
2023-11-23T13:12:14.404Z,97462.34
2023-11-23T13:14:43.797Z,97452.59
2023-11-23T13:17:15.419Z,97445.47
2023-11-23T13:19:44.891Z,97446.63
2023-11-23T13:22:13.867Z,97439.50
2023-11-23T13:24:43.020Z,97435.84
2023-11-23T13:27:13.746Z,97430.41
2023-11-23T13:29:43.072Z,97423.97
2023-11-23T13:32:11.975Z,97410.56
2023-11-23T13:34:42.312Z,97412.41
2023-11-23T13:37:11.523Z,97393.00
2023-11-23T13:39:40.188Z,97401.81
2023-11-23T13:42:09.284Z,97401.63
2023-11-23T13:44:37.870Z,97390.34
2023-11-23T13:47:08.333Z,97393.00
2023-11-23T13:49:37.065Z,97387.56
2023-11-23T13:52:11.705Z,97391.56
2023-11-23T13:54:40.461Z,97383.59
2023-11-23T13:57:09.196Z,97373.84
2023-11-23T13:59:39.325Z,97379.13
2023-11-23T14:02:08.119Z,97375.66
2023-11-23T14:04:37.065Z,97369.69
2023-11-23T14:07:07.461Z,97365.06
2023-11-23T14:09:36.160Z,97365.88
2023-11-23T14:12:05.552Z,97363.72
2023-11-23T14:14:34.107Z,97352.31
2023-11-23T14:17:02.723Z,97353.47
2023-11-23T14:19:31.287Z,97354.97
2023-11-23T14:22:02.213Z,97346.19
2023-11-23T14:24:32.226Z,97328.31
2023-11-23T14:27:02.043Z,97333.63
2023-11-23T14:29:30.869Z,97328.31
2023-11-23T14:31:59.423Z,97318.88
2023-11-23T14:34:28.979Z,97317.72
2023-11-23T14:36:58.150Z,97306.13
2023-11-23T14:39:29.018Z,97301.81
2023-11-23T14:41:59.555Z,97301.50
2023-11-23T14:44:28.427Z,97301.50
2023-11-23T14:46:57.090Z,97280.63
2023-11-23T14:49:26.427Z,97285.78
2023-11-23T14:51:56.949Z,97278.00
2023-11-23T14:54:34.542Z,97269.88
2023-11-23T14:57:09.373Z,97264.75
2023-11-23T14:59:38.444Z,97256.78
2023-11-23T15:02:08.191Z,97246.19
2023-11-23T15:04:36.888Z,97241.56
2023-11-23T15:07:05.883Z,97233.63
2023-11-23T15:09:34.472Z,97233.63
2023-11-23T15:12:03.866Z,97229.97
2023-11-23T15:14:33.961Z,97218.53
2023-11-23T15:17:02.695Z,97207.28
2023-11-23T15:19:35.861Z,97193.88
2023-11-23T15:22:07.371Z,97198.16
2023-11-23T15:24:36.694Z,97189.56
2023-11-23T15:27:08.797Z,97197.00
2023-11-23T15:29:39.165Z,97183.09
2023-11-23T15:32:08.620Z,97188.25
2023-11-23T15:34:37.204Z,97180.28
2023-11-23T15:37:06.171Z,97171.03
2023-11-23T15:39:34.821Z,97155.28
2023-11-23T15:42:04.675Z,97162.41
2023-11-23T15:44:33.237Z,97157.09
2023-11-23T15:47:04.018Z,97161.75
2023-11-23T15:49:33.348Z,97144.03
2023-11-23T15:52:03.156Z,97149.31
2023-11-23T15:54:31.865Z,97152.63
2023-11-23T15:57:00.520Z,97150.31
2023-11-23T15:59:30.756Z,97142.84
2023-11-23T16:01:59.770Z,97137.75
2023-11-23T16:04:29.916Z,97127.31
2023-11-23T16:06:58.734Z,97117.72
2023-11-23T16:09:28.966Z,97116.03
2023-11-23T16:11:59.302Z,97108.09
2023-11-23T16:14:27.911Z,97116.34
2023-11-23T16:16:57.922Z,97111.91
2023-11-23T16:19:27.380Z,97109.75
2023-11-23T16:21:57.383Z,97100.34
2023-11-23T16:24:26.014Z,97093.03
2023-11-23T16:26:54.716Z,97087.41
2023-11-23T16:29:24.601Z,97086.91
2023-11-23T16:31:53.145Z,97078.59
2023-11-23T16:34:22.155Z,97079.41
2023-11-23T16:36:50.784Z,97079.56
2023-11-23T16:39:21.475Z,97079.94
2023-11-23T16:41:50.778Z,97073.97
2023-11-23T16:44:19.386Z,97070.16
2023-11-23T16:46:48.878Z,97068.66
2023-11-23T16:49:17.507Z,97070.34
2023-11-23T16:51:46.553Z,97059.09
2023-11-23T16:54:16.039Z,97048.16
2023-11-23T16:56:46.314Z,97045.03
2023-11-23T16:59:18.117Z,97044.69
2023-11-23T17:01:47.309Z,97032.63
2023-11-23T17:04:19.024Z,97020.75
2023-11-23T17:06:47.821Z,97017.59
2023-11-23T17:09:16.605Z,97015.13
2023-11-23T17:11:51.096Z,97001.22
2023-11-23T17:14:19.677Z,96999.56
2023-11-23T17:16:51.205Z,96997.91
2023-11-23T17:19:23.302Z,96990.94
2023-11-23T17:21:53.834Z,96988.97
2023-11-23T17:24:25.107Z,96986.16
2023-11-23T17:26:55.844Z,96983.16
2023-11-23T17:29:24.458Z,96978.06
2023-11-23T17:31:58.766Z,96972.75
2023-11-23T17:34:28.435Z,96960.69
2023-11-23T17:36:57.003Z,96956.53
2023-11-23T17:39:25.860Z,96951.22
2023-11-23T17:41:56.025Z,96946.94
2023-11-23T17:44:26.804Z,96945.47
2023-11-23T17:46:56.137Z,96945.63
2023-11-23T17:49:25.410Z,96942.34
2023-11-23T17:51:56.073Z,96939.50
2023-11-23T17:54:29.838Z,96931.75
2023-11-23T17:57:03.143Z,96931.75
2023-11-23T17:59:43.618Z,96926.78
2023-11-23T18:02:19.555Z,96922.66
2023-11-23T18:04:53.310Z,96909.59
2023-11-23T18:07:22.282Z,96898.31
2023-11-23T18:09:51.861Z,96875.81
2023-11-23T18:12:22.090Z,96836.13
2023-11-23T18:14:51.117Z,96829.03
2023-11-23T18:17:19.686Z,96833.50
2023-11-23T18:19:48.201Z,96848.50
2023-11-23T18:22:18.099Z,96853.50
2023-11-23T18:24:46.819Z,96862.94
2023-11-23T18:27:15.483Z,96861.47
2023-11-23T18:29:46.419Z,96855.34
2023-11-23T18:32:15.437Z,96852.69
2023-11-23T18:34:43.995Z,96852.88
2023-11-23T18:37:13.617Z,96838.66
2023-11-23T18:39:42.540Z,96836.81
2023-11-23T18:42:12.924Z,96831.69
2023-11-23T18:44:42.045Z,96830.88
2023-11-23T18:47:12.766Z,96828.06
2023-11-23T18:49:41.347Z,96820.78
2023-11-23T18:52:11.618Z,96813.00
2023-11-23T18:54:40.195Z,96817.28
2023-11-23T18:57:08.783Z,96807.03
2023-11-23T18:59:37.444Z,96803.72
2023-11-23T19:02:06.378Z,96786.16
2023-11-23T19:04:36.998Z,96793.28
2023-11-23T19:07:07.246Z,96776.41
2023-11-23T19:09:35.801Z,96773.94
2023-11-23T19:12:05.589Z,96765.81
2023-11-23T19:14:34.177Z,96763.66
2023-11-23T19:17:05.410Z,96758.50
2023-11-23T19:19:38.548Z,96746.28
2023-11-23T19:22:08.942Z,96749.75
2023-11-23T19:24:38.188Z,96738.00
2023-11-23T19:27:07.654Z,96735.53
2023-11-23T19:29:42.838Z,96724.75
2023-11-23T19:32:21.605Z,96712.16
2023-11-23T19:34:53.788Z,96709.69
2023-11-23T19:37:22.846Z,96708.06
2023-11-23T19:39:52.044Z,96700.75
2023-11-23T19:42:21.430Z,96693.63
2023-11-23T19:44:50.594Z,96686.88
2023-11-23T19:47:20.245Z,96686.06
2023-11-23T19:49:49.757Z,96680.13
2023-11-23T19:52:24.799Z,96679.09
2023-11-23T19:54:54.278Z,96666.38
2023-11-23T19:57:23.295Z,96661.94
2023-11-23T19:59:52.003Z,96651.69
2023-11-23T20:02:20.803Z,96654.34
2023-11-23T20:04:49.460Z,96643.94
2023-11-23T20:07:19.674Z,96639.47
2023-11-23T20:09:48.990Z,96638.66
2023-11-23T20:12:18.329Z,96621.94
2023-11-23T20:14:47.116Z,96628.41
2023-11-23T20:17:16.154Z,96628.59
2023-11-23T20:19:44.794Z,96625.13
2023-11-23T20:22:13.667Z,96621.66
2023-11-23T20:24:44.144Z,96618.53
2023-11-23T20:27:13.334Z,96614.88
2023-11-23T20:29:42.373Z,96615.72
2023-11-23T20:32:11.526Z,96620.81
2023-11-23T20:34:40.157Z,96608.59
2023-11-23T20:37:08.741Z,96619.34
2023-11-23T20:39:37.720Z,96618.53
2023-11-23T20:42:08.319Z,96619.84
2023-11-23T20:44:37.046Z,96615.34
2023-11-23T20:47:05.983Z,96609.25
2023-11-23T20:49:37.358Z,96602.28
2023-11-23T20:52:07.221Z,96609.56
2023-11-23T20:54:36.209Z,96608.59
2023-11-23T20:57:08.787Z,96598.81
2023-11-23T20:59:37.982Z,96613.25
2023-11-23T21:02:09.398Z,96605.47
2023-11-23T21:04:38.925Z,96603.00
2023-11-23T21:07:09.028Z,96604.66
2023-11-23T21:09:38.281Z,96600.38
2023-11-23T21:12:15.132Z,96595.91
2023-11-23T21:14:50.253Z,96595.72
2023-11-23T21:17:18.729Z,96594.06
2023-11-23T21:19:47.339Z,96592.88
2023-11-23T21:22:15.827Z,96593.09
2023-11-23T21:24:45.803Z,96593.09
2023-11-23T21:27:16.025Z,96590.44
2023-11-23T21:29:44.616Z,96584.50
2023-11-23T21:32:15.534Z,96593.25
2023-11-23T21:34:44.173Z,96595.06
2023-11-23T21:37:12.735Z,96604.00
2023-11-23T21:39:41.480Z,96589.13
2023-11-23T21:42:10.503Z,96591.63
2023-11-23T21:44:41.071Z,96593.41
2023-11-23T21:47:10.115Z,96591.78
2023-11-23T21:49:41.320Z,96584.00
2023-11-23T21:52:09.883Z,96588.31
2023-11-23T21:54:47.238Z,96589.31
2023-11-23T21:57:22.696Z,96587.50
2023-11-23T21:59:52.985Z,96589.13
2023-11-23T22:02:21.782Z,96590.75
2023-11-23T22:04:50.410Z,96590.75
2023-11-23T22:07:19.045Z,96587.13
2023-11-23T22:09:47.633Z,96587.13
2023-11-23T22:12:16.360Z,96585.16
2023-11-23T22:14:44.925Z,96572.53
2023-11-23T22:17:15.964Z,96573.19
2023-11-23T22:19:44.777Z,96568.72
2023-11-23T22:22:13.856Z,96570.53
2023-11-23T22:24:44.382Z,96571.81
2023-11-23T22:27:13.661Z,96566.69
2023-11-23T22:29:42.741Z,96567.56
2023-11-23T22:32:11.702Z,96562.88
2023-11-23T22:34:42.407Z,96560.50
2023-11-23T22:37:11.604Z,96553.22
2023-11-23T22:39:40.736Z,96560.50
2023-11-23T22:42:10.586Z,96546.66
2023-11-23T22:44:39.776Z,96558.88
2023-11-23T22:47:09.571Z,96552.94
2023-11-23T22:49:38.752Z,96550.28
2023-11-23T22:52:08.940Z,96547.09
2023-11-23T22:54:39.291Z,96543.44
2023-11-23T22:57:07.892Z,96545.09
2023-11-23T22:59:36.544Z,96548.19
2023-11-23T23:02:06.151Z,96552.50
2023-11-23T23:04:35.885Z,96549.03
2023-11-23T23:07:07.329Z,96542.72
2023-11-23T23:09:37.870Z,96541.91
2023-11-23T23:12:07.115Z,96542.72
2023-11-23T23:14:35.775Z,96542.56
2023-11-23T23:17:05.045Z,96545.22
2023-11-23T23:19:33.632Z,96539.72
2023-11-23T23:22:02.306Z,96549.50
2023-11-23T23:24:30.944Z,96546.19
2023-11-23T23:27:02.401Z,96548.03
2023-11-23T23:29:32.256Z,96550.13
2023-11-23T23:32:00.871Z,96548.13
2023-11-23T23:34:30.015Z,96547.75
2023-11-23T23:36:58.824Z,96541.66
2023-11-23T23:39:27.639Z,96539.81
2023-11-23T23:41:56.209Z,96541.13
2023-11-23T23:44:26.690Z,96537.00
2023-11-23T23:46:57.087Z,96539.66
2023-11-23T23:49:26.698Z,96536.34
2023-11-23T23:51:55.478Z,96533.88
2023-11-23T23:54:24.272Z,96530.22
2023-11-23T23:56:53.340Z,96534.34
2023-11-23T23:59:22.528Z,96542.91
